Terminal Aerodrome Forecast
Issued by NWS

Current Version | Previous Version | Text Only | Print | Product List | Glossary On
Versions: 1 2 3 4 5 6 7 8 9 10 11 12 13 14 15 16 17 18 19 20 21 22 23 24 25 26 27 28 29
975
FTUS44 KFWD 281505 AAA
TAFAFW
TAF AMD
KAFW 281505Z 2815/2912 17008KT P6SM BKN015
     FM281700 19011KT P6SM SCT015
     FM290500 15008KT P6SM VCSH OVC018=

USA.gov is the U.S. government's official web portal to all federal, state and local government web resources and services.